sensor_id;sensor_type;location;lat;lon;timestamp;pressure;altitude;pressure_sealevel;temperature;humidity
72359;BME280;60317;48.880;-0.862;2023-05-10T00:00:04;100183.97;;;21.14;49.39
72359;BME280;60317;48.880;-0.862;2023-05-10T00:02:31;100178.06;;;21.01;49.59
72359;BME280;60317;48.880;-0.862;2023-05-10T00:04:58;100181.88;;;20.88;49.85
72359;BME280;60317;48.880;-0.862;2023-05-10T00:07:24;100177.66;;;20.95;49.60
72359;BME280;60317;48.880;-0.862;2023-05-10T00:09:51;100178.06;;;21.01;49.61
72359;BME280;60317;48.880;-0.862;2023-05-10T00:12:17;100184.28;;;21.01;49.57
72359;BME280;60317;48.880;-0.862;2023-05-10T00:14:45;100172.13;;;21.07;49.51
72359;BME280;60317;48.880;-0.862;2023-05-10T00:17:12;100180.03;;;21.08;49.59
72359;BME280;60317;48.880;-0.862;2023-05-10T00:19:38;100180.03;;;21.08;49.25
72359;BME280;60317;48.880;-0.862;2023-05-10T00:22:05;100176.47;;;21.17;49.17
72359;BME280;60317;48.880;-0.862;2023-05-10T00:24:31;100183.72;;;21.07;49.45
72359;BME280;60317;48.880;-0.862;2023-05-10T00:26:58;100188.81;;;20.91;49.87
72359;BME280;60317;48.880;-0.862;2023-05-10T00:29:24;100183.72;;;20.88;49.94
72359;BME280;60317;48.880;-0.862;2023-05-10T00:31:52;100194.06;;;20.92;49.61
72359;BME280;60317;48.880;-0.862;2023-05-10T00:34:19;100185.97;;;21.02;49.42
72359;BME280;60317;48.880;-0.862;2023-05-10T00:36:45;100183.44;;;21.01;49.46
72359;BME280;60317;48.880;-0.862;2023-05-10T00:39:12;100189.94;;;21.08;49.23
72359;BME280;60317;48.880;-0.862;2023-05-10T00:41:38;100185.00;;;21.03;49.48
72359;BME280;60317;48.880;-0.862;2023-05-10T00:44:05;100191.50;;;21.01;49.59
72359;BME280;60317;48.880;-0.862;2023-05-10T00:46:31;100197.69;;;21.11;49.36
72359;BME280;60317;48.880;-0.862;2023-05-10T00:48:59;100201.91;;;21.23;49.02
72359;BME280;60317;48.880;-0.862;2023-05-10T00:51:26;100204.75;;;21.12;49.25
72359;BME280;60317;48.880;-0.862;2023-05-10T00:53:53;100208.72;;;21.08;49.46
72359;BME280;60317;48.880;-0.862;2023-05-10T00:56:20;100200.00;;;20.86;49.87
72359;BME280;60317;48.880;-0.862;2023-05-10T00:58:46;100198.88;;;20.89;49.73
72359;BME280;60317;48.880;-0.862;2023-05-10T01:01:13;100213.81;;;20.91;49.70
72359;BME280;60317;48.880;-0.862;2023-05-10T01:03:40;100201.84;;;20.95;49.51
72359;BME280;60317;48.880;-0.862;2023-05-10T01:06:08;100206.06;;;20.98;49.58
72359;BME280;60317;48.880;-0.862;2023-05-10T01:08:34;100209.13;;;21.13;49.11
72359;BME280;60317;48.880;-0.862;2023-05-10T01:11:01;100217.50;;;21.10;49.29
72359;BME280;60317;48.880;-0.862;2023-05-10T01:13:32;100219.31;;;21.09;49.21
72359;BME280;60317;48.880;-0.862;2023-05-10T01:16:00;100211.03;;;21.03;49.47
72359;BME280;60317;48.880;-0.862;2023-05-10T01:18:27;100221.59;;;21.04;49.45
72359;BME280;60317;48.880;-0.862;2023-05-10T01:21:02;100217.41;;;20.92;49.75
72359;BME280;60317;48.880;-0.862;2023-05-10T01:23:42;100214.69;;;20.82;49.81
72359;BME280;60317;48.880;-0.862;2023-05-10T01:26:24;100217.97;;;20.95;49.49
72359;BME280;60317;48.880;-0.862;2023-05-10T01:29:09;100223.31;;;20.95;49.39
72359;BME280;60317;48.880;-0.862;2023-05-10T01:31:58;100223.56;;;21.02;49.22
72359;BME280;60317;48.880;-0.862;2023-05-10T01:34:35;100223.88;;;20.99;49.38
72359;BME280;60317;48.880;-0.862;2023-05-10T01:37:05;100222.72;;;21.02;49.40
72359;BME280;60317;48.880;-0.862;2023-05-10T01:39:38;100228.81;;;21.04;49.28
72359;BME280;60317;48.880;-0.862;2023-05-10T01:42:09;100223.56;;;21.02;49.25
72359;BME280;60317;48.880;-0.862;2023-05-10T01:44:39;100228.13;;;20.92;49.49
72359;BME280;60317;48.880;-0.862;2023-05-10T01:47:11;100230.09;;;20.80;49.65
72359;BME280;60317;48.880;-0.862;2023-05-10T01:49:41;100230.09;;;20.90;49.55
72359;BME280;60317;48.880;-0.862;2023-05-10T01:52:12;100231.94;;;20.89;49.43
72359;BME280;60317;48.880;-0.862;2023-05-10T01:54:43;100239.84;;;20.91;49.51
72359;BME280;60317;48.880;-0.862;2023-05-10T01:57:13;100240.97;;;20.98;49.27
72359;BME280;60317;48.880;-0.862;2023-05-10T01:59:43;100240.84;;;21.00;49.24
72359;BME280;60317;48.880;-0.862;2023-05-10T02:02:13;100244.50;;;20.98;49.13
72359;BME280;60317;48.880;-0.862;2023-05-10T02:04:42;100255.13;;;21.00;49.30
72359;BME280;60317;48.880;-0.862;2023-05-10T02:07:10;100241.25;;;20.95;49.42
72359;BME280;60317;48.880;-0.862;2023-05-10T02:09:38;100250.75;;;20.80;49.49
72359;BME280;60317;48.880;-0.862;2023-05-10T02:12:05;100245.22;;;20.81;49.37
72359;BME280;60317;48.880;-0.862;2023-05-10T02:14:35;100245.94;;;20.93;49.23
72359;BME280;60317;48.880;-0.862;2023-05-10T02:17:04;100259.66;;;20.90;49.32
72359;BME280;60317;48.880;-0.862;2023-05-10T02:19:34;100256.81;;;20.91;49.33
72359;BME280;60317;48.880;-0.862;2023-05-10T02:22:03;100263.91;;;20.92;49.38
72359;BME280;60317;48.880;-0.862;2023-05-10T02:24:32;100251.88;;;20.96;49.17
72359;BME280;60317;48.880;-0.862;2023-05-10T02:26:59;100255.84;;;20.92;49.34
72359;BME280;60317;48.880;-0.862;2023-05-10T02:29:27;100249.63;;;20.92;49.44
72359;BME280;60317;48.880;-0.862;2023-05-10T02:31:55;100251.59;;;20.80;49.53
72359;BME280;60317;48.880;-0.862;2023-05-10T02:34:25;100259.66;;;20.90;49.18
72359;BME280;60317;48.880;-0.862;2023-05-10T02:36:55;100260.66;;;20.89;49.18
72359;BME280;60317;48.880;-0.862;2023-05-10T02:39:22;100256.81;;;20.91;49.40
72359;BME280;60317;48.880;-0.862;2023-05-10T02:41:50;100268.41;;;21.02;49.14
72359;BME280;60317;48.880;-0.862;2023-05-10T02:44:19;100251.88;;;20.96;49.20
72359;BME280;60317;48.880;-0.862;2023-05-10T02:46:46;100253.00;;;20.94;49.28
72359;BME280;60317;48.880;-0.862;2023-05-10T02:49:13;100263.31;;;20.98;49.18
72359;BME280;60317;48.880;-0.862;2023-05-10T02:51:42;100257.53;;;20.93;49.27
72359;BME280;60317;48.880;-0.862;2023-05-10T02:54:13;100264.91;;;20.82;49.36
72359;BME280;60317;48.880;-0.862;2023-05-10T02:56:44;100260.75;;;20.78;49.45
72359;BME280;60317;48.880;-0.862;2023-05-10T02:59:13;100262.06;;;20.83;49.40
72359;BME280;60317;48.880;-0.862;2023-05-10T03:01:40;100256.53;;;20.85;49.32
72359;BME280;60317;48.880;-0.862;2023-05-10T03:04:06;100262.47;;;20.88;49.31
72359;BME280;60317;48.880;-0.862;2023-05-10T03:06:33;100264.75;;;20.93;49.27
72359;BME280;60317;48.880;-0.862;2023-05-10T03:08:59;100269.56;;;20.89;49.36
72359;BME280;60317;48.880;-0.862;2023-05-10T03:11:36;100267.56;;;20.91;49.02
72359;BME280;60317;48.880;-0.862;2023-05-10T03:14:10;100275.50;;;21.03;49.00
72359;BME280;60317;48.880;-0.862;2023-05-10T03:16:42;100271.97;;;20.92;49.10
72359;BME280;60317;48.880;-0.862;2023-05-10T03:19:16;100270.66;;;20.77;49.52
72359;BME280;60317;48.880;-0.862;2023-05-10T03:21:48;100274.75;;;20.81;49.24
72359;BME280;60317;48.880;-0.862;2023-05-10T03:24:16;100278.75;;;20.87;49.01
72359;BME280;60317;48.880;-0.862;2023-05-10T03:26:47;100279.59;;;20.87;49.08
72359;BME280;60317;48.880;-0.862;2023-05-10T03:29:14;100276.06;;;20.87;49.30
72359;BME280;60317;48.880;-0.862;2023-05-10T03:31:42;100279.19;;;20.92;49.04
72359;BME280;60317;48.880;-0.862;2023-05-10T03:34:09;100271.97;;;20.92;49.02
72359;BME280;60317;48.880;-0.862;2023-05-10T03:36:35;100277.63;;;20.89;49.02
72359;BME280;60317;48.880;-0.862;2023-05-10T03:39:02;100273.63;;;20.74;49.42
72359;BME280;60317;48.880;-0.862;2023-05-10T03:41:29;100271.66;;;20.76;49.34
72359;BME280;60317;48.880;-0.862;2023-05-10T03:43:56;100271.38;;;20.79;49.28
72359;BME280;60317;48.880;-0.862;2023-05-10T03:46:23;100280.69;;;20.85;49.19
72359;BME280;60317;48.880;-0.862;2023-05-10T03:48:49;100280.56;;;20.86;49.25
72359;BME280;60317;48.880;-0.862;2023-05-10T03:51:16;100283.25;;;20.86;49.06
72359;BME280;60317;48.880;-0.862;2023-05-10T03:53:42;100284.94;;;20.87;49.10
72359;BME280;60317;48.880;-0.862;2023-05-10T03:56:09;100277.63;;;20.89;49.04
72359;BME280;60317;48.880;-0.862;2023-05-10T03:58:35;100288.22;;;20.91;49.00
72359;BME280;60317;48.880;-0.862;2023-05-10T04:01:03;100294.44;;;20.82;49.20
72359;BME280;60317;48.880;-0.862;2023-05-10T04:03:30;100298.78;;;20.73;49.32
72359;BME280;60317;48.880;-0.862;2023-05-10T04:05:59;100300.22;;;20.77;49.10
72359;BME280;60317;48.880;-0.862;2023-05-10T04:08:25;100296.25;;;20.81;49.07
72359;BME280;60317;48.880;-0.862;2023-05-10T04:10:52;100291.03;;;20.80;49.03
72359;BME280;60317;48.880;-0.862;2023-05-10T04:13:18;100291.44;;;20.85;49.09
72359;BME280;60317;48.880;-0.862;2023-05-10T04:15:45;100301.06;;;20.87;48.72
72359;BME280;60317;48.880;-0.862;2023-05-10T04:18:13;100301.91;;;20.88;48.92
72359;BME280;60317;48.880;-0.862;2023-05-10T04:20:39;100304.47;;;20.89;49.00
72359;BME280;60317;48.880;-0.862;2023-05-10T04:23:06;100311.53;;;20.81;49.01
72359;BME280;60317;48.880;-0.862;2023-05-10T04:25:33;100305.16;;;20.72;49.12
72359;BME280;60317;48.880;-0.862;2023-05-10T04:28:00;100312.78;;;20.77;49.14
72359;BME280;60317;48.880;-0.862;2023-05-10T04:30:26;100316.06;;;20.80;48.87
72359;BME280;60317;48.880;-0.862;2023-05-10T04:32:53;100314.78;;;20.84;48.94
72359;BME280;60317;48.880;-0.862;2023-05-10T04:35:21;100311.13;;;20.85;48.75
72359;BME280;60317;48.880;-0.862;2023-05-10T04:37:47;100306.44;;;20.87;48.96
72359;BME280;60317;48.880;-0.862;2023-05-10T04:40:14;100314.50;;;20.87;48.97
72359;BME280;60317;48.880;-0.862;2023-05-10T04:42:41;100316.06;;;20.90;48.80
72359;BME280;60317;48.880;-0.862;2023-05-10T04:45:08;100319.75;;;20.89;48.90
72359;BME280;60317;48.880;-0.862;2023-05-10T04:47:34;100316.91;;;20.90;48.88
72359;BME280;60317;48.880;-0.862;2023-05-10T04:50:01;100311.53;;;20.90;48.83
72359;BME280;60317;48.880;-0.862;2023-05-10T04:52:29;100316.06;;;20.80;49.01
72359;BME280;60317;48.880;-0.862;2023-05-10T04:54:55;100319.44;;;20.72;49.21
72359;BME280;60317;48.880;-0.862;2023-05-10T04:57:22;100312.78;;;20.77;49.07
72359;BME280;60317;48.880;-0.862;2023-05-10T04:59:48;100318.63;;;20.82;49.24
72359;BME280;60317;48.880;-0.862;2023-05-10T05:02:16;100315.78;;;20.83;48.90
72359;BME280;60317;48.880;-0.862;2023-05-10T05:04:42;100322.00;;;20.84;49.06
72359;BME280;60317;48.880;-0.862;2023-05-10T05:07:09;100328.09;;;20.86;48.97
72359;BME280;60317;48.880;-0.862;2023-05-10T05:09:37;100339.53;;;20.88;48.93
72359;BME280;60317;48.880;-0.862;2023-05-10T05:12:04;100330.75;;;20.76;49.34
72359;BME280;60317;48.880;-0.862;2023-05-10T05:14:30;100345.97;;;20.56;49.92
72359;BME280;60317;48.880;-0.862;2023-05-10T05:16:56;100351.22;;;20.58;49.70
72359;BME280;60317;48.880;-0.862;2023-05-10T05:19:23;100344.03;;;20.68;49.41
72359;BME280;60317;48.880;-0.862;2023-05-10T05:21:50;100343.59;;;20.72;49.33
72359;BME280;60317;48.880;-0.862;2023-05-10T05:24:16;100337.81;;;20.77;49.27
72359;BME280;60317;48.880;-0.862;2023-05-10T05:26:44;100351.13;;;20.79;49.06
72359;BME280;60317;48.880;-0.862;2023-05-10T05:29:10;100356.06;;;20.83;48.94
72359;BME280;60317;48.880;-0.862;2023-05-10T05:31:37;100354.38;;;20.82;49.02
72359;BME280;60317;48.880;-0.862;2023-05-10T05:34:03;100353.81;;;20.88;49.00
72359;BME280;60317;48.880;-0.862;2023-05-10T05:36:30;100360.88;;;20.80;49.15
72359;BME280;60317;48.880;-0.862;2023-05-10T05:38:57;100354.63;;;20.69;49.40
72359;BME280;60317;48.880;-0.862;2023-05-10T05:41:23;100359.56;;;20.74;49.19
72359;BME280;60317;48.880;-0.862;2023-05-10T05:43:51;100362.72;;;20.79;49.12
72359;BME280;60317;48.880;-0.862;2023-05-10T05:46:17;100363.59;;;20.89;48.91
72359;BME280;60317;48.880;-0.862;2023-05-10T05:48:44;100368.50;;;20.84;49.11
72359;BME280;60317;48.880;-0.862;2023-05-10T05:51:11;100363.13;;;20.84;49.13
72359;BME280;60317;48.880;-0.862;2023-05-10T05:53:37;100366.53;;;20.86;49.08
72359;BME280;60317;48.880;-0.862;2023-05-10T05:56:04;100358.47;;;20.86;48.88
72359;BME280;60317;48.880;-0.862;2023-05-10T05:58:30;100369.06;;;20.88;48.96
72359;BME280;60317;48.880;-0.862;2023-05-10T06:00:58;100375.84;;;20.72;49.25
72359;BME280;60317;48.880;-0.862;2023-05-10T06:03:25;100379.38;;;20.73;49.26
72359;BME280;60317;48.880;-0.862;2023-05-10T06:05:52;100381.50;;;20.79;49.00
72359;BME280;60317;48.880;-0.862;2023-05-10T06:08:18;100373.19;;;20.82;49.06
72359;BME280;60317;48.880;-0.862;2023-05-10T06:10:45;100372.03;;;20.85;48.64
72359;BME280;60317;48.880;-0.862;2023-05-10T06:13:11;100383.66;;;20.85;48.86
72359;BME280;60317;48.880;-0.862;2023-05-10T06:15:38;100378.97;;;20.87;48.90
72359;BME280;60317;48.880;-0.862;2023-05-10T06:18:06;100377.97;;;20.88;48.80
72359;BME280;60317;48.880;-0.862;2023-05-10T06:20:33;100381.84;;;20.95;48.58
72359;BME280;60317;48.880;-0.862;2023-05-10T06:23:00;100388.16;;;20.85;48.94
72359;BME280;60317;48.880;-0.862;2023-05-10T06:25:26;100389.03;;;20.85;49.01
72359;BME280;60317;48.880;-0.862;2023-05-10T06:27:53;100392.88;;;20.92;48.86
72359;BME280;60317;48.880;-0.862;2023-05-10T06:30:19;100387.22;;;20.95;48.72
72359;BME280;60317;48.880;-0.862;2023-05-10T06:32:46;100389.91;;;20.95;48.86
72359;BME280;60317;48.880;-0.862;2023-05-10T06:35:14;100382.53;;;20.97;48.74
72359;BME280;60317;48.880;-0.862;2023-05-10T06:37:41;100390.31;;;21.01;48.79
72359;BME280;60317;48.880;-0.862;2023-05-10T06:40:08;100388.63;;;21.00;48.51
72359;BME280;60317;48.880;-0.862;2023-05-10T06:42:35;100392.28;;;20.98;48.74
72359;BME280;60317;48.880;-0.862;2023-05-10T06:45:01;100391.41;;;20.88;48.85
72359;BME280;60317;48.880;-0.862;2023-05-10T06:47:28;100394.66;;;20.82;49.02
72359;BME280;60317;48.880;-0.862;2023-05-10T06:49:54;100386.03;;;20.88;48.75
72359;BME280;60317;48.880;-0.862;2023-05-10T06:52:22;100392.88;;;20.92;48.66
72359;BME280;60317;48.880;-0.862;2023-05-10T06:54:49;100390.88;;;20.94;48.53
72359;BME280;60317;48.880;-0.862;2023-05-10T06:57:15;100385.50;;;20.94;48.55
72359;BME280;60317;48.880;-0.862;2023-05-10T06:59:57;100397.75;;;20.78;48.86
72359;BME280;60317;48.880;-0.862;2023-05-10T07:02:24;100396.59;;;20.70;48.84
72359;BME280;60317;48.880;-0.862;2023-05-10T07:04:50;100398.44;;;20.70;49.10
72359;BME280;60317;48.880;-0.862;2023-05-10T07:07:17;100400.97;;;20.62;48.93
72359;BME280;60317;48.880;-0.862;2023-05-10T07:09:45;100399.53;;;20.58;49.11
72359;BME280;60317;48.880;-0.862;2023-05-10T07:12:12;100395.94;;;20.47;49.34
72359;BME280;60317;48.880;-0.862;2023-05-10T07:14:41;100402.56;;;20.43;49.67
72359;BME280;60317;48.880;-0.862;2023-05-10T07:17:07;100402.56;;;20.43;49.70
72359;BME280;60317;48.880;-0.862;2023-05-10T07:19:34;100406.94;;;20.44;49.94
72359;BME280;60317;48.880;-0.862;2023-05-10T07:22:01;100406.03;;;20.34;50.21
72359;BME280;60317;48.880;-0.862;2023-05-10T07:24:27;100404.28;;;20.23;50.36
72359;BME280;60317;48.880;-0.862;2023-05-10T07:26:55;100405.13;;;20.24;50.21
72359;BME280;60317;48.880;-0.862;2023-05-10T07:29:21;100402.72;;;20.21;50.45
72359;BME280;60317;48.880;-0.862;2023-05-10T07:31:48;100401.47;;;20.25;50.38
72359;BME280;60317;48.880;-0.862;2023-05-10T07:34:15;100402.38;;;20.35;49.84
72359;BME280;60317;48.880;-0.862;2023-05-10T07:36:41;100402.56;;;20.43;49.57
72359;BME280;60317;48.880;-0.862;2023-05-10T07:39:08;100394.25;;;20.46;49.40
72359;BME280;60317;48.880;-0.862;2023-05-10T07:41:34;100398.88;;;20.44;49.67
72359;BME280;60317;48.880;-0.862;2023-05-10T07:44:03;100401.56;;;20.44;49.79
72359;BME280;60317;48.880;-0.862;2023-05-10T07:46:29;100394.19;;;20.37;50.08
72359;BME280;60317;48.880;-0.862;2023-05-10T07:48:56;100396.97;;;20.25;50.42
72359;BME280;60317;48.880;-0.862;2023-05-10T07:51:23;100402.59;;;20.22;50.65
72359;BME280;60317;48.880;-0.862;2023-05-10T07:53:49;100397.50;;;20.19;50.70
72359;BME280;60317;48.880;-0.862;2023-05-10T07:56:21;100402.03;;;20.19;50.94
72359;BME280;60317;48.880;-0.862;2023-05-10T07:58:49;100395.22;;;20.15;51.00
72359;BME280;60317;48.880;-0.862;2023-05-10T08:01:16;100401.13;;;20.09;51.17
72359;BME280;60317;48.880;-0.862;2023-05-10T08:03:43;100403.91;;;20.07;51.28
72359;BME280;60317;48.880;-0.862;2023-05-10T08:06:10;100405.38;;;20.11;51.30
72359;BME280;60317;48.880;-0.862;2023-05-10T08:08:36;100402.97;;;20.08;51.51
72359;BME280;60317;48.880;-0.862;2023-05-10T08:11:03;100395.59;;;20.10;51.54
72359;BME280;60317;48.880;-0.862;2023-05-10T08:13:30;100391.22;;;20.09;51.34
72359;BME280;60317;48.880;-0.862;2023-05-10T08:15:57;100406.22;;;20.12;51.69
72359;BME280;60317;48.880;-0.862;2023-05-10T08:18:25;100397.75;;;20.16;51.79
72359;BME280;60317;48.880;-0.862;2023-05-10T08:20:51;100405.41;;;20.21;52.03
72359;BME280;60317;48.880;-0.862;2023-05-10T08:23:18;100402.03;;;20.19;52.39
72359;BME280;60317;48.880;-0.862;2023-05-10T08:25:44;100406.25;;;20.21;52.37
72359;BME280;60317;48.880;-0.862;2023-05-10T08:28:11;100410.78;;;20.21;52.64
72359;BME280;60317;48.880;-0.862;2023-05-10T08:30:37;100408.94;;;20.21;52.48
72359;BME280;60317;48.880;-0.862;2023-05-10T08:33:04;100404.25;;;20.14;52.66
72359;BME280;60317;48.880;-0.862;2023-05-10T08:35:32;100407.66;;;20.16;52.73
72359;BME280;60317;48.880;-0.862;2023-05-10T08:37:58;100403.38;;;20.13;52.89
72359;BME280;60317;48.880;-0.862;2023-05-10T08:40:26;100403.22;;;20.05;53.16
72359;BME280;60317;48.880;-0.862;2023-05-10T08:42:57;100412.53;;;20.11;53.29
72359;BME280;60317;48.880;-0.862;2023-05-10T08:45:27;100408.44;;;20.07;53.35
72359;BME280;60317;48.880;-0.862;2023-05-10T08:47:56;100407.59;;;20.06;53.54
72359;BME280;60317;48.880;-0.862;2023-05-10T08:50:23;100414.28;;;20.12;53.30
72359;BME280;60317;48.880;-0.862;2023-05-10T08:52:55;100419.16;;;20.07;53.42
72359;BME280;60317;48.880;-0.862;2023-05-10T08:55:23;100420.16;;;20.06;53.22
72359;BME280;60317;48.880;-0.862;2023-05-10T08:57:50;100424.78;;;20.03;53.34
72359;BME280;60317;48.880;-0.862;2023-05-10T09:00:17;100428.47;;;20.02;53.76
72359;BME280;60317;48.880;-0.862;2023-05-10T09:02:44;100424.28;;;20.10;53.40
72359;BME280;60317;48.880;-0.862;2023-05-10T09:05:12;100431.06;;;20.14;53.19
72359;BME280;60317;48.880;-0.862;2023-05-10T09:07:38;100423.50;;;20.19;53.11
72359;BME280;60317;48.880;-0.862;2023-05-10T09:10:08;100428.72;;;20.20;53.12
72359;BME280;60317;48.880;-0.862;2023-05-10T09:12:35;100424.34;;;20.19;53.20
72359;BME280;60317;48.880;-0.862;2023-05-10T09:15:03;100423.88;;;20.14;53.69
72359;BME280;60317;48.880;-0.862;2023-05-10T09:17:30;100432.47;;;20.08;53.82
72359;BME280;60317;48.880;-0.862;2023-05-10T09:19:57;100435.66;;;20.02;53.93
72359;BME280;60317;48.880;-0.862;2023-05-10T09:22:24;100431.00;;;20.04;53.75
72359;BME280;60317;48.880;-0.862;2023-05-10T09:25:03;100428.28;;;20.15;53.53
72359;BME280;60317;48.880;-0.862;2023-05-10T09:27:31;100432.38;;;20.19;53.65
72359;BME280;60317;48.880;-0.862;2023-05-10T09:29:58;100427.13;;;20.18;53.59
72359;BME280;60317;48.880;-0.862;2023-05-10T09:32:36;100425.91;;;20.22;53.71
72359;BME280;60317;48.880;-0.862;2023-05-10T09:35:07;100428.03;;;20.28;53.82
72359;BME280;60317;48.880;-0.862;2023-05-10T09:37:34;100433.66;;;20.25;53.82
72359;BME280;60317;48.880;-0.862;2023-05-10T09:40:04;100439.34;;;20.22;53.99
72359;BME280;60317;48.880;-0.862;2023-05-10T09:42:32;100425.75;;;20.23;53.98
72359;BME280;60317;48.880;-0.862;2023-05-10T09:45:02;100425.63;;;20.25;54.02
72359;BME280;60317;48.880;-0.862;2023-05-10T09:47:31;100428.03;;;20.28;54.00
72359;BME280;60317;48.880;-0.862;2023-05-10T09:49:57;100428.19;;;20.26;54.37
72359;BME280;60317;48.880;-0.862;2023-05-10T09:52:24;100435.31;;;20.37;54.00
72359;BME280;60317;48.880;-0.862;2023-05-10T09:54:53;100433.63;;;20.36;53.79
72359;BME280;60317;48.880;-0.862;2023-05-10T09:57:21;100428.69;;;20.41;53.75
72359;BME280;60317;48.880;-0.862;2023-05-10T09:59:49;100426.53;;;20.35;53.72
72359;BME280;60317;48.880;-0.862;2023-05-10T10:02:16;100437.41;;;20.34;53.88
72359;BME280;60317;48.880;-0.862;2023-05-10T10:04:43;100446.38;;;20.23;54.12
72359;BME280;60317;48.880;-0.862;2023-05-10T10:07:09;100436.50;;;20.23;54.23
72359;BME280;60317;48.880;-0.862;2023-05-10T10:09:36;100439.25;;;20.33;54.42
72359;BME280;60317;48.880;-0.862;2023-05-10T10:12:03;100446.94;;;20.47;54.12
72359;BME280;60317;48.880;-0.862;2023-05-10T10:14:29;100443.53;;;20.45;54.15
72359;BME280;60317;48.880;-0.862;2023-05-10T10:17:00;100445.72;;;20.52;54.24
72359;BME280;60317;48.880;-0.862;2023-05-10T10:19:34;100436.06;;;20.49;54.46
72359;BME280;60317;48.880;-0.862;2023-05-10T10:22:02;100442.41;;;20.48;54.13
72359;BME280;60317;48.880;-0.862;2023-05-10T10:24:28;100439.88;;;20.46;54.21
72359;BME280;60317;48.880;-0.862;2023-05-10T10:26:59;100438.44;;;20.42;54.31
72359;BME280;60317;48.880;-0.862;2023-05-10T10:29:35;100442.63;;;20.56;53.56
72359;BME280;60317;48.880;-0.862;2023-05-10T10:32:10;100445.31;;;20.96;52.48
72359;BME280;60317;48.880;-0.862;2023-05-10T10:34:38;100453.28;;;21.17;51.85
72359;BME280;60317;48.880;-0.862;2023-05-10T10:37:06;100448.06;;;21.26;51.61
72359;BME280;60317;48.880;-0.862;2023-05-10T10:39:32;100451.50;;;21.37;51.26
72359;BME280;60317;48.880;-0.862;2023-05-10T10:41:59;100450.38;;;21.40;51.08
72359;BME280;60317;48.880;-0.862;2023-05-10T10:44:34;100457.91;;;21.46;51.00
72359;BME280;60317;48.880;-0.862;2023-05-10T10:47:05;100454.63;;;21.42;50.71
72359;BME280;60317;48.880;-0.862;2023-05-10T10:49:33;100445.56;;;21.43;50.68
72359;BME280;60317;48.880;-0.862;2023-05-10T10:52:15;100452.81;;;21.53;50.35
72359;BME280;60317;48.880;-0.862;2023-05-10T10:54:49;100451.38;;;21.58;50.06
72359;BME280;60317;48.880;-0.862;2023-05-10T10:57:18;100447.13;;;21.65;49.81
72359;BME280;60317;48.880;-0.862;2023-05-10T10:59:45;100442.75;;;21.64;49.96
72359;BME280;60317;48.880;-0.862;2023-05-10T11:07:54;100467.50;;;20.89;52.90
72359;BME280;60317;48.880;-0.862;2023-05-10T11:10:22;100454.44;;;20.75;53.45
72359;BME280;60317;48.880;-0.862;2023-05-10T11:12:53;100459.53;;;20.78;53.29
72359;BME280;60317;48.880;-0.862;2023-05-10T11:15:19;100461.56;;;20.85;53.20
72359;BME280;60317;48.880;-0.862;2023-05-10T11:17:47;100459.03;;;20.93;53.12
72359;BME280;60317;48.880;-0.862;2023-05-10T11:20:14;100457.06;;;20.95;53.08
72359;BME280;60317;48.880;-0.862;2023-05-10T11:22:49;100458.56;;;20.88;53.20
72359;BME280;60317;48.880;-0.862;2023-05-10T11:25:18;100458.00;;;20.85;53.26
72359;BME280;60317;48.880;-0.862;2023-05-10T11:27:47;100456.72;;;20.79;53.70
72359;BME280;60317;48.880;-0.862;2023-05-10T11:30:14;100460.22;;;20.70;53.86
72359;BME280;60317;48.880;-0.862;2023-05-10T11:32:42;100459.78;;;20.65;53.87
72359;BME280;60317;48.880;-0.862;2023-05-10T11:35:09;100454.00;;;20.69;53.88
72359;BME280;60317;48.880;-0.862;2023-05-10T11:37:36;100456.41;;;20.72;53.75
72359;BME280;60317;48.880;-0.862;2023-05-10T11:40:04;100454.88;;;20.80;53.78
72359;BME280;60317;48.880;-0.862;2023-05-10T11:42:32;100453.88;;;20.71;54.00
72359;BME280;60317;48.880;-0.862;2023-05-10T11:45:00;100442.09;;;20.62;54.35
72359;BME280;60317;48.880;-0.862;2023-05-10T11:47:27;100448.84;;;20.57;54.56
72359;BME280;60317;48.880;-0.862;2023-05-10T11:49:53;100453.50;;;20.55;54.36
72359;BME280;60317;48.880;-0.862;2023-05-10T11:52:20;100449.88;;;20.65;54.10
72359;BME280;60317;48.880;-0.862;2023-05-10T11:54:51;100459.31;;;20.60;53.96
72359;BME280;60317;48.880;-0.862;2023-05-10T11:57:18;100459.00;;;20.53;54.57
72359;BME280;60317;48.880;-0.862;2023-05-10T11:59:46;100451.94;;;20.52;54.69
72359;BME280;60317;48.880;-0.862;2023-05-10T12:02:13;100455.09;;;20.57;54.66
72359;BME280;60317;48.880;-0.862;2023-05-10T12:04:40;100454.78;;;20.51;54.68
72359;BME280;60317;48.880;-0.862;2023-05-10T12:07:07;100452.72;;;20.43;54.98
72359;BME280;60317;48.880;-0.862;2023-05-10T12:09:34;100455.78;;;20.38;55.12
72359;BME280;60317;48.880;-0.862;2023-05-10T12:12:09;100442.25;;;20.40;55.05
72359;BME280;60317;48.880;-0.862;2023-05-10T12:14:36;100448.19;;;20.43;55.32
72359;BME280;60317;48.880;-0.862;2023-05-10T12:17:04;100443.94;;;20.41;55.46
72359;BME280;60317;48.880;-0.862;2023-05-10T12:19:37;100445.50;;;20.43;55.40
72359;BME280;60317;48.880;-0.862;2023-05-10T12:22:04;100440.84;;;20.45;55.21
72359;BME280;60317;48.880;-0.862;2023-05-10T12:24:33;100430.84;;;20.47;55.61
72359;BME280;60317;48.880;-0.862;2023-05-10T12:27:04;100439.75;;;20.48;55.26
72359;BME280;60317;48.880;-0.862;2023-05-10T12:29:31;100426.97;;;20.61;55.14
72359;BME280;60317;48.880;-0.862;2023-05-10T12:31:59;100428.41;;;20.65;54.97
72359;BME280;60317;48.880;-0.862;2023-05-10T12:34:30;100431.63;;;20.59;54.91
72359;BME280;60317;48.880;-0.862;2023-05-10T12:36:58;100435.28;;;20.58;54.96
72359;BME280;60317;48.880;-0.862;2023-05-10T12:39:25;100435.16;;;20.60;55.21
72359;BME280;60317;48.880;-0.862;2023-05-10T12:41:51;100437.50;;;20.53;55.29
72359;BME280;60317;48.880;-0.862;2023-05-10T12:44:18;100433.53;;;20.47;55.32
72359;BME280;60317;48.880;-0.862;2023-05-10T12:46:45;100440.09;;;20.55;55.25
72359;BME280;60317;48.880;-0.862;2023-05-10T12:49:11;100437.25;;;20.56;54.86